sensor_id;sensor_type;location;lat;lon;timestamp;P1;durP1;ratioP1;P2;durP2;ratioP2
76320;SDS011;65132;52.088;5.402;2023-11-22T00:02:22;10.45;;;4.10;;
76320;SDS011;65132;52.088;5.402;2023-11-22T00:04:51;9.25;;;3.95;;
76320;SDS011;65132;52.088;5.402;2023-11-22T00:07:18;14.05;;;4.35;;
76320;SDS011;65132;52.088;5.402;2023-11-22T00:09:46;10.98;;;4.00;;
76320;SDS011;65132;52.088;5.402;2023-11-22T00:12:13;8.98;;;3.65;;
76320;SDS011;65132;52.088;5.402;2023-11-22T00:14:40;8.57;;;3.97;;
76320;SDS011;65132;52.088;5.402;2023-11-22T00:17:06;10.25;;;3.72;;
76320;SDS011;65132;52.088;5.402;2023-11-22T00:19:33;9.18;;;3.63;;
76320;SDS011;65132;52.088;5.402;2023-11-22T00:21:59;8.50;;;3.72;;
76320;SDS011;65132;52.088;5.402;2023-11-22T00:24:28;11.25;;;3.42;;
76320;SDS011;65132;52.088;5.402;2023-11-22T00:27:01;11.25;;;3.83;;
76320;SDS011;65132;52.088;5.402;2023-11-22T00:29:29;10.68;;;3.80;;
76320;SDS011;65132;52.088;5.402;2023-11-22T00:31:57;10.57;;;3.95;;
76320;SDS011;65132;52.088;5.402;2023-11-22T00:34:24;8.48;;;3.95;;
76320;SDS011;65132;52.088;5.402;2023-11-22T00:36:52;8.80;;;3.72;;
76320;SDS011;65132;52.088;5.402;2023-11-22T00:39:20;11.73;;;3.70;;
76320;SDS011;65132;52.088;5.402;2023-11-22T00:41:52;9.95;;;3.33;;
76320;SDS011;65132;52.088;5.402;2023-11-22T00:44:21;9.70;;;3.90;;
76320;SDS011;65132;52.088;5.402;2023-11-22T00:46:52;10.15;;;3.55;;
76320;SDS011;65132;52.088;5.402;2023-11-22T00:49:21;7.65;;;3.47;;
76320;SDS011;65132;52.088;5.402;2023-11-22T00:51:51;10.98;;;3.95;;
76320;SDS011;65132;52.088;5.402;2023-11-22T00:54:17;9.20;;;4.13;;
76320;SDS011;65132;52.088;5.402;2023-11-22T00:56:43;9.02;;;3.38;;
76320;SDS011;65132;52.088;5.402;2023-11-22T00:59:12;9.50;;;4.18;;
76320;SDS011;65132;52.088;5.402;2023-11-22T01:01:39;9.27;;;3.55;;
76320;SDS011;65132;52.088;5.402;2023-11-22T01:04:06;10.45;;;4.18;;
76320;SDS011;65132;52.088;5.402;2023-11-22T01:06:35;9.70;;;3.63;;
76320;SDS011;65132;52.088;5.402;2023-11-22T01:09:03;8.15;;;3.33;;
76320;SDS011;65132;52.088;5.402;2023-11-22T01:11:30;8.50;;;3.55;;
76320;SDS011;65132;52.088;5.402;2023-11-22T01:13:56;8.63;;;3.60;;
76320;SDS011;65132;52.088;5.402;2023-11-22T01:16:27;7.68;;;3.67;;
76320;SDS011;65132;52.088;5.402;2023-11-22T01:18:55;9.45;;;3.65;;
76320;SDS011;65132;52.088;5.402;2023-11-22T01:21:28;8.98;;;4.15;;
76320;SDS011;65132;52.088;5.402;2023-11-22T01:24:02;8.13;;;3.80;;
76320;SDS011;65132;52.088;5.402;2023-11-22T01:26:31;7.70;;;3.22;;
76320;SDS011;65132;52.088;5.402;2023-11-22T01:29:01;11.40;;;3.45;;
76320;SDS011;65132;52.088;5.402;2023-11-22T01:31:27;9.32;;;3.92;;
76320;SDS011;65132;52.088;5.402;2023-11-22T01:33:54;8.23;;;2.85;;
76320;SDS011;65132;52.088;5.402;2023-11-22T01:36:24;9.68;;;3.55;;
76320;SDS011;65132;52.088;5.402;2023-11-22T01:38:53;9.85;;;3.78;;
76320;SDS011;65132;52.088;5.402;2023-11-22T01:41:23;10.63;;;3.70;;
76320;SDS011;65132;52.088;5.402;2023-11-22T01:43:49;8.52;;;2.65;;
76320;SDS011;65132;52.088;5.402;2023-11-22T01:46:23;8.25;;;3.45;;
76320;SDS011;65132;52.088;5.402;2023-11-22T01:48:50;9.70;;;3.25;;
76320;SDS011;65132;52.088;5.402;2023-11-22T01:51:21;7.65;;;3.38;;
76320;SDS011;65132;52.088;5.402;2023-11-22T01:53:48;9.60;;;3.22;;
76320;SDS011;65132;52.088;5.402;2023-11-22T01:56:19;7.40;;;2.85;;
76320;SDS011;65132;52.088;5.402;2023-11-22T01:58:51;8.82;;;2.97;;
76320;SDS011;65132;52.088;5.402;2023-11-22T02:01:20;7.43;;;2.78;;
76320;SDS011;65132;52.088;5.402;2023-11-22T02:03:47;8.68;;;2.85;;
76320;SDS011;65132;52.088;5.402;2023-11-22T02:06:15;8.57;;;3.42;;
76320;SDS011;65132;52.088;5.402;2023-11-22T02:08:42;9.40;;;3.42;;
76320;SDS011;65132;52.088;5.402;2023-11-22T02:11:11;9.32;;;3.40;;
76320;SDS011;65132;52.088;5.402;2023-11-22T02:13:38;7.07;;;2.85;;
76320;SDS011;65132;52.088;5.402;2023-11-22T02:16:06;9.82;;;4.07;;
76320;SDS011;65132;52.088;5.402;2023-11-22T02:18:35;8.73;;;3.25;;
76320;SDS011;65132;52.088;5.402;2023-11-22T02:23:35;8.57;;;3.28;;
76320;SDS011;65132;52.088;5.402;2023-11-22T02:26:01;7.90;;;3.05;;
76320;SDS011;65132;52.088;5.402;2023-11-22T02:28:28;7.70;;;2.88;;
76320;SDS011;65132;52.088;5.402;2023-11-22T02:30:55;9.13;;;3.45;;
76320;SDS011;65132;52.088;5.402;2023-11-22T02:33:24;8.60;;;3.40;;
76320;SDS011;65132;52.088;5.402;2023-11-22T02:35:57;7.10;;;2.90;;
76320;SDS011;65132;52.088;5.402;2023-11-22T02:38:23;9.27;;;3.25;;
76320;SDS011;65132;52.088;5.402;2023-11-22T02:40:54;9.88;;;2.90;;
76320;SDS011;65132;52.088;5.402;2023-11-22T02:43:22;8.98;;;3.33;;
76320;SDS011;65132;52.088;5.402;2023-11-22T02:45:52;8.98;;;3.80;;
76320;SDS011;65132;52.088;5.402;2023-11-22T02:48:22;12.75;;;4.55;;
76320;SDS011;65132;52.088;5.402;2023-11-22T02:50:56;9.60;;;3.67;;
76320;SDS011;65132;52.088;5.402;2023-11-22T02:53:22;7.90;;;3.38;;
76320;SDS011;65132;52.088;5.402;2023-11-22T02:55:51;9.63;;;4.05;;
76320;SDS011;65132;52.088;5.402;2023-11-22T02:58:20;8.50;;;3.75;;
76320;SDS011;65132;52.088;5.402;2023-11-22T03:00:48;10.10;;;3.67;;
76320;SDS011;65132;52.088;5.402;2023-11-22T03:03:14;9.38;;;3.78;;
76320;SDS011;65132;52.088;5.402;2023-11-22T03:05:43;7.35;;;3.13;;
76320;SDS011;65132;52.088;5.402;2023-11-22T03:08:09;7.65;;;3.05;;
76320;SDS011;65132;52.088;5.402;2023-11-22T03:10:38;11.40;;;2.90;;
76320;SDS011;65132;52.088;5.402;2023-11-22T03:13:04;9.02;;;3.13;;
76320;SDS011;65132;52.088;5.402;2023-11-22T03:15:31;7.13;;;3.00;;
76320;SDS011;65132;52.088;5.402;2023-11-22T03:17:57;8.70;;;2.63;;
76320;SDS011;65132;52.088;5.402;2023-11-22T03:20:27;15.68;;;4.60;;
76320;SDS011;65132;52.088;5.402;2023-11-22T03:22:58;12.15;;;3.67;;
76320;SDS011;65132;52.088;5.402;2023-11-22T03:25:25;10.00;;;3.28;;
76320;SDS011;65132;52.088;5.402;2023-11-22T03:27:51;13.77;;;4.07;;
76320;SDS011;65132;52.088;5.402;2023-11-22T03:30:18;12.40;;;3.50;;
76320;SDS011;65132;52.088;5.402;2023-11-22T03:32:44;9.10;;;3.25;;
76320;SDS011;65132;52.088;5.402;2023-11-22T03:35:13;8.60;;;3.03;;
76320;SDS011;65132;52.088;5.402;2023-11-22T03:37:40;10.63;;;4.07;;
76320;SDS011;65132;52.088;5.402;2023-11-22T03:40:14;12.80;;;4.00;;
76320;SDS011;65132;52.088;5.402;2023-11-22T03:42:44;10.02;;;3.30;;
76320;SDS011;65132;52.088;5.402;2023-11-22T03:45:10;8.48;;;2.85;;
76320;SDS011;65132;52.088;5.402;2023-11-22T03:47:36;8.57;;;3.10;;
76320;SDS011;65132;52.088;5.402;2023-11-22T03:50:09;9.43;;;3.63;;
76320;SDS011;65132;52.088;5.402;2023-11-22T03:52:35;8.55;;;3.08;;
76320;SDS011;65132;52.088;5.402;2023-11-22T03:55:05;9.80;;;3.30;;
76320;SDS011;65132;52.088;5.402;2023-11-22T03:57:33;10.20;;;3.33;;
76320;SDS011;65132;52.088;5.402;2023-11-22T04:00:01;10.13;;;4.00;;
76320;SDS011;65132;52.088;5.402;2023-11-22T04:02:27;7.95;;;2.58;;
76320;SDS011;65132;52.088;5.402;2023-11-22T04:04:54;7.22;;;3.35;;
76320;SDS011;65132;52.088;5.402;2023-11-22T04:07:21;8.20;;;3.40;;
76320;SDS011;65132;52.088;5.402;2023-11-22T04:09:48;7.75;;;3.10;;
76320;SDS011;65132;52.088;5.402;2023-11-22T04:12:22;9.48;;;3.50;;
76320;SDS011;65132;52.088;5.402;2023-11-22T04:14:50;9.25;;;3.55;;
76320;SDS011;65132;52.088;5.402;2023-11-22T04:17:19;9.70;;;4.00;;
76320;SDS011;65132;52.088;5.402;2023-11-22T04:19:46;8.02;;;3.13;;
76320;SDS011;65132;52.088;5.402;2023-11-22T04:22:12;10.40;;;3.10;;
76320;SDS011;65132;52.088;5.402;2023-11-22T04:24:39;8.82;;;3.53;;
76320;SDS011;65132;52.088;5.402;2023-11-22T04:27:05;10.07;;;3.78;;
76320;SDS011;65132;52.088;5.402;2023-11-22T04:29:32;7.18;;;3.30;;
76320;SDS011;65132;52.088;5.402;2023-11-22T04:31:58;8.60;;;3.67;;
76320;SDS011;65132;52.088;5.402;2023-11-22T04:34:25;9.00;;;3.38;;
76320;SDS011;65132;52.088;5.402;2023-11-22T04:36:54;9.95;;;3.22;;
76320;SDS011;65132;52.088;5.402;2023-11-22T04:39:23;7.72;;;2.97;;
76320;SDS011;65132;52.088;5.402;2023-11-22T04:41:49;8.68;;;3.58;;
76320;SDS011;65132;52.088;5.402;2023-11-22T04:44:16;8.90;;;2.70;;
76320;SDS011;65132;52.088;5.402;2023-11-22T04:46:43;6.72;;;2.65;;
76320;SDS011;65132;52.088;5.402;2023-11-22T04:49:10;9.75;;;3.60;;
76320;SDS011;65132;52.088;5.402;2023-11-22T04:51:40;9.30;;;3.42;;
76320;SDS011;65132;52.088;5.402;2023-11-22T04:54:06;9.02;;;3.38;;
76320;SDS011;65132;52.088;5.402;2023-11-22T04:56:33;12.57;;;3.53;;
76320;SDS011;65132;52.088;5.402;2023-11-22T04:59:05;7.20;;;2.80;;
76320;SDS011;65132;52.088;5.402;2023-11-22T05:01:33;7.03;;;2.80;;
76320;SDS011;65132;52.088;5.402;2023-11-22T05:04:00;11.90;;;3.47;;
76320;SDS011;65132;52.088;5.402;2023-11-22T05:06:26;9.32;;;3.42;;
76320;SDS011;65132;52.088;5.402;2023-11-22T05:08:56;7.88;;;3.08;;
76320;SDS011;65132;52.088;5.402;2023-11-22T05:11:25;8.80;;;2.95;;
76320;SDS011;65132;52.088;5.402;2023-11-22T05:13:55;8.52;;;3.08;;
76320;SDS011;65132;52.088;5.402;2023-11-22T05:16:21;8.25;;;2.90;;
76320;SDS011;65132;52.088;5.402;2023-11-22T05:18:57;7.70;;;3.03;;
76320;SDS011;65132;52.088;5.402;2023-11-22T05:21:25;8.27;;;3.33;;
76320;SDS011;65132;52.088;5.402;2023-11-22T05:23:52;9.05;;;2.88;;
76320;SDS011;65132;52.088;5.402;2023-11-22T05:26:21;10.68;;;3.90;;
76320;SDS011;65132;52.088;5.402;2023-11-22T05:28:47;10.57;;;3.50;;
76320;SDS011;65132;52.088;5.402;2023-11-22T05:31:14;10.20;;;3.90;;
76320;SDS011;65132;52.088;5.402;2023-11-22T05:33:43;10.48;;;3.72;;
76320;SDS011;65132;52.088;5.402;2023-11-22T05:36:09;9.75;;;4.15;;
76320;SDS011;65132;52.088;5.402;2023-11-22T05:38:36;10.32;;;3.42;;
76320;SDS011;65132;52.088;5.402;2023-11-22T05:41:03;9.88;;;3.85;;
76320;SDS011;65132;52.088;5.402;2023-11-22T05:43:30;9.15;;;3.83;;
76320;SDS011;65132;52.088;5.402;2023-11-22T05:45:56;8.55;;;2.85;;
76320;SDS011;65132;52.088;5.402;2023-11-22T05:48:23;9.05;;;3.65;;
76320;SDS011;65132;52.088;5.402;2023-11-22T05:50:49;9.30;;;3.67;;
76320;SDS011;65132;52.088;5.402;2023-11-22T05:53:19;8.52;;;2.97;;
76320;SDS011;65132;52.088;5.402;2023-11-22T05:55:49;9.80;;;3.60;;
76320;SDS011;65132;52.088;5.402;2023-11-22T05:58:22;9.00;;;3.45;;
76320;SDS011;65132;52.088;5.402;2023-11-22T06:00:52;8.10;;;3.42;;
76320;SDS011;65132;52.088;5.402;2023-11-22T06:03:18;8.27;;;2.80;;
76320;SDS011;65132;52.088;5.402;2023-11-22T06:05:47;9.20;;;3.40;;
76320;SDS011;65132;52.088;5.402;2023-11-22T06:08:19;10.55;;;3.75;;
76320;SDS011;65132;52.088;5.402;2023-11-22T06:10:46;9.10;;;3.42;;
76320;SDS011;65132;52.088;5.402;2023-11-22T06:13:12;7.55;;;3.45;;
76320;SDS011;65132;52.088;5.402;2023-11-22T06:15:38;12.57;;;4.05;;
76320;SDS011;65132;52.088;5.402;2023-11-22T06:18:06;8.32;;;3.65;;
76320;SDS011;65132;52.088;5.402;2023-11-22T06:23:04;11.88;;;4.00;;
76320;SDS011;65132;52.088;5.402;2023-11-22T06:25:32;11.52;;;3.88;;
76320;SDS011;65132;52.088;5.402;2023-11-22T06:27:59;16.02;;;4.30;;
76320;SDS011;65132;52.088;5.402;2023-11-22T06:30:28;8.80;;;3.53;;
76320;SDS011;65132;52.088;5.402;2023-11-22T06:32:54;7.80;;;2.78;;
76320;SDS011;65132;52.088;5.402;2023-11-22T06:35:24;10.35;;;3.47;;
76320;SDS011;65132;52.088;5.402;2023-11-22T06:37:50;9.82;;;3.72;;
76320;SDS011;65132;52.088;5.402;2023-11-22T06:40:19;11.75;;;3.95;;
76320;SDS011;65132;52.088;5.402;2023-11-22T06:42:48;9.43;;;3.53;;
76320;SDS011;65132;52.088;5.402;2023-11-22T06:45:15;10.93;;;3.55;;
76320;SDS011;65132;52.088;5.402;2023-11-22T06:47:42;7.30;;;3.05;;
76320;SDS011;65132;52.088;5.402;2023-11-22T06:50:09;8.38;;;3.22;;
76320;SDS011;65132;52.088;5.402;2023-11-22T06:52:41;9.13;;;3.20;;
76320;SDS011;65132;52.088;5.402;2023-11-22T06:55:08;8.70;;;3.67;;
76320;SDS011;65132;52.088;5.402;2023-11-22T06:57:36;7.72;;;3.05;;
76320;SDS011;65132;52.088;5.402;2023-11-22T07:00:04;9.73;;;3.53;;
76320;SDS011;65132;52.088;5.402;2023-11-22T07:02:33;12.82;;;4.75;;
76320;SDS011;65132;52.088;5.402;2023-11-22T07:05:03;10.02;;;4.05;;
76320;SDS011;65132;52.088;5.402;2023-11-22T07:07:34;12.73;;;5.00;;
76320;SDS011;65132;52.088;5.402;2023-11-22T07:10:01;13.82;;;4.53;;
76320;SDS011;65132;52.088;5.402;2023-11-22T07:12:28;11.10;;;4.35;;
76320;SDS011;65132;52.088;5.402;2023-11-22T07:14:56;12.35;;;4.47;;
76320;SDS011;65132;52.088;5.402;2023-11-22T07:17:25;9.95;;;4.18;;
76320;SDS011;65132;52.088;5.402;2023-11-22T07:19:51;10.50;;;4.20;;
76320;SDS011;65132;52.088;5.402;2023-11-22T07:22:18;10.00;;;3.72;;
76320;SDS011;65132;52.088;5.402;2023-11-22T07:24:47;10.85;;;3.67;;
76320;SDS011;65132;52.088;5.402;2023-11-22T07:27:14;12.20;;;3.97;;
76320;SDS011;65132;52.088;5.402;2023-11-22T07:29:44;9.93;;;4.50;;
76320;SDS011;65132;52.088;5.402;2023-11-22T07:32:17;12.45;;;4.50;;
76320;SDS011;65132;52.088;5.402;2023-11-22T07:34:47;10.27;;;4.15;;
76320;SDS011;65132;52.088;5.402;2023-11-22T07:37:13;11.13;;;4.65;;
76320;SDS011;65132;52.088;5.402;2023-11-22T07:39:39;11.65;;;4.68;;
76320;SDS011;65132;52.088;5.402;2023-11-22T07:42:06;11.57;;;4.20;;
76320;SDS011;65132;52.088;5.402;2023-11-22T07:44:35;13.98;;;5.20;;
76320;SDS011;65132;52.088;5.402;2023-11-22T07:47:02;12.80;;;4.88;;
76320;SDS011;65132;52.088;5.402;2023-11-22T07:49:28;10.55;;;4.20;;
76320;SDS011;65132;52.088;5.402;2023-11-22T07:51:57;10.45;;;4.43;;
76320;SDS011;65132;52.088;5.402;2023-11-22T07:54:25;9.75;;;4.18;;
76320;SDS011;65132;52.088;5.402;2023-11-22T07:56:52;12.27;;;4.47;;
76320;SDS011;65132;52.088;5.402;2023-11-22T07:59:21;12.77;;;4.78;;
76320;SDS011;65132;52.088;5.402;2023-11-22T08:01:47;11.68;;;4.95;;
76320;SDS011;65132;52.088;5.402;2023-11-22T08:04:17;12.57;;;5.13;;
76320;SDS011;65132;52.088;5.402;2023-11-22T08:06:46;12.32;;;4.38;;
76320;SDS011;65132;52.088;5.402;2023-11-22T08:09:14;11.13;;;4.25;;
76320;SDS011;65132;52.088;5.402;2023-11-22T08:11:40;10.38;;;3.60;;
76320;SDS011;65132;52.088;5.402;2023-11-22T08:14:07;12.25;;;4.20;;
76320;SDS011;65132;52.088;5.402;2023-11-22T08:16:38;10.05;;;3.92;;
76320;SDS011;65132;52.088;5.402;2023-11-22T08:19:05;9.15;;;3.47;;
76320;SDS011;65132;52.088;5.402;2023-11-22T08:21:31;9.85;;;3.92;;
76320;SDS011;65132;52.088;5.402;2023-11-22T08:23:58;12.30;;;4.45;;
76320;SDS011;65132;52.088;5.402;2023-11-22T08:26:30;11.88;;;4.18;;
76320;SDS011;65132;52.088;5.402;2023-11-22T08:29:01;12.10;;;4.53;;
76320;SDS011;65132;52.088;5.402;2023-11-22T08:31:27;10.52;;;3.92;;
76320;SDS011;65132;52.088;5.402;2023-11-22T08:33:54;10.77;;;4.03;;
76320;SDS011;65132;52.088;5.402;2023-11-22T08:36:20;11.93;;;4.43;;
76320;SDS011;65132;52.088;5.402;2023-11-22T08:38:47;13.45;;;4.72;;
76320;SDS011;65132;52.088;5.402;2023-11-22T08:41:13;10.30;;;4.72;;
76320;SDS011;65132;52.088;5.402;2023-11-22T08:43:40;14.23;;;5.03;;
76320;SDS011;65132;52.088;5.402;2023-11-22T08:46:08;12.52;;;4.70;;
76320;SDS011;65132;52.088;5.402;2023-11-22T08:48:40;15.07;;;5.20;;
76320;SDS011;65132;52.088;5.402;2023-11-22T08:51:09;12.43;;;4.20;;
76320;SDS011;65132;52.088;5.402;2023-11-22T08:53:37;14.27;;;4.90;;
76320;SDS011;65132;52.088;5.402;2023-11-22T08:56:04;8.73;;;3.90;;
76320;SDS011;65132;52.088;5.402;2023-11-22T08:58:32;9.55;;;4.10;;
76320;SDS011;65132;52.088;5.402;2023-11-22T09:00:59;9.82;;;3.72;;
76320;SDS011;65132;52.088;5.402;2023-11-22T09:03:26;13.27;;;6.05;;
76320;SDS011;65132;52.088;5.402;2023-11-22T09:05:52;13.20;;;5.13;;
76320;SDS011;65132;52.088;5.402;2023-11-22T09:08:19;14.90;;;5.57;;
76320;SDS011;65132;52.088;5.402;2023-11-22T09:10:53;12.77;;;4.85;;
76320;SDS011;65132;52.088;5.402;2023-11-22T09:13:20;13.93;;;4.85;;
76320;SDS011;65132;52.088;5.402;2023-11-22T09:15:46;12.43;;;5.93;;
76320;SDS011;65132;52.088;5.402;2023-11-22T09:18:15;15.30;;;5.50;;
76320;SDS011;65132;52.088;5.402;2023-11-22T09:20:42;14.20;;;6.10;;
76320;SDS011;65132;52.088;5.402;2023-11-22T09:23:08;14.27;;;6.72;;
76320;SDS011;65132;52.088;5.402;2023-11-22T09:25:35;19.25;;;7.97;;
76320;SDS011;65132;52.088;5.402;2023-11-22T09:28:01;19.33;;;8.25;;
76320;SDS011;65132;52.088;5.402;2023-11-22T09:30:28;19.45;;;7.80;;
76320;SDS011;65132;52.088;5.402;2023-11-22T09:33:01;17.33;;;6.90;;
76320;SDS011;65132;52.088;5.402;2023-11-22T09:35:29;17.88;;;7.68;;
76320;SDS011;65132;52.088;5.402;2023-11-22T09:37:58;17.98;;;7.57;;
76320;SDS011;65132;52.088;5.402;2023-11-22T09:40:26;17.00;;;7.70;;
76320;SDS011;65132;52.088;5.402;2023-11-22T09:42:55;21.98;;;8.85;;
76320;SDS011;65132;52.088;5.402;2023-11-22T09:45:22;21.00;;;7.82;;
76320;SDS011;65132;52.088;5.402;2023-11-22T09:47:51;16.60;;;6.55;;
76320;SDS011;65132;52.088;5.402;2023-11-22T09:50:26;18.67;;;7.90;;
76320;SDS011;65132;52.088;5.402;2023-11-22T09:53:19;16.90;;;7.35;;
76320;SDS011;65132;52.088;5.402;2023-11-22T09:55:51;16.80;;;7.07;;
76320;SDS011;65132;52.088;5.402;2023-11-22T09:58:21;18.35;;;7.68;;
76320;SDS011;65132;52.088;5.402;2023-11-22T10:00:48;16.83;;;6.70;;
76320;SDS011;65132;52.088;5.402;2023-11-22T10:03:17;19.35;;;6.90;;
76320;SDS011;65132;52.088;5.402;2023-11-22T10:05:43;20.02;;;7.22;;
76320;SDS011;65132;52.088;5.402;2023-11-22T10:08:10;21.00;;;8.32;;
76320;SDS011;65132;52.088;5.402;2023-11-22T10:10:39;18.45;;;7.30;;
76320;SDS011;65132;52.088;5.402;2023-11-22T10:13:05;17.60;;;7.38;;
76320;SDS011;65132;52.088;5.402;2023-11-22T10:15:33;13.38;;;5.05;;
76320;SDS011;65132;52.088;5.402;2023-11-22T10:18:01;18.15;;;7.03;;
76320;SDS011;65132;52.088;5.402;2023-11-22T10:20:35;18.23;;;7.40;;
76320;SDS011;65132;52.088;5.402;2023-11-22T10:23:03;15.02;;;7.00;;
76320;SDS011;65132;52.088;5.402;2023-11-22T10:25:31;15.65;;;7.10;;
76320;SDS011;65132;52.088;5.402;2023-11-22T10:28:02;14.25;;;6.35;;
76320;SDS011;65132;52.088;5.402;2023-11-22T10:30:31;16.80;;;7.25;;
76320;SDS011;65132;52.088;5.402;2023-11-22T10:32:57;19.15;;;7.25;;
76320;SDS011;65132;52.088;5.402;2023-11-22T10:35:24;21.38;;;8.85;;
76320;SDS011;65132;52.088;5.402;2023-11-22T10:37:52;20.15;;;8.75;;
76320;SDS011;65132;52.088;5.402;2023-11-22T10:40:19;21.35;;;7.78;;
76320;SDS011;65132;52.088;5.402;2023-11-22T10:42:48;16.88;;;7.65;;
76320;SDS011;65132;52.088;5.402;2023-11-22T10:45:16;18.52;;;7.45;;
76320;SDS011;65132;52.088;5.402;2023-11-22T10:47:44;15.40;;;6.40;;
76320;SDS011;65132;52.088;5.402;2023-11-22T10:50:18;16.65;;;7.18;;
76320;SDS011;65132;52.088;5.402;2023-11-22T10:52:45;20.70;;;9.13;;
76320;SDS011;65132;52.088;5.402;2023-11-22T10:55:21;18.13;;;7.07;;
76320;SDS011;65132;52.088;5.402;2023-11-22T10:57:51;15.65;;;7.65;;
76320;SDS011;65132;52.088;5.402;2023-11-22T11:00:25;17.15;;;7.45;;
76320;SDS011;65132;52.088;5.402;2023-11-22T11:03:06;15.07;;;6.88;;
76320;SDS011;65132;52.088;5.402;2023-11-22T11:05:36;14.82;;;6.60;;
76320;SDS011;65132;52.088;5.402;2023-11-22T11:08:13;16.65;;;7.15;;
76320;SDS011;65132;52.088;5.402;2023-11-22T11:10:46;12.70;;;5.50;;
76320;SDS011;65132;52.088;5.402;2023-11-22T11:13:13;18.33;;;8.00;;
76320;SDS011;65132;52.088;5.402;2023-11-22T11:15:43;16.50;;;6.97;;
76320;SDS011;65132;52.088;5.402;2023-11-22T11:18:10;16.40;;;6.97;;
76320;SDS011;65132;52.088;5.402;2023-11-22T11:23:25;12.95;;;6.47;;
76320;SDS011;65132;52.088;5.402;2023-11-22T11:25:54;15.50;;;7.28;;
76320;SDS011;65132;52.088;5.402;2023-11-22T11:28:22;17.35;;;6.32;;
76320;SDS011;65132;52.088;5.402;2023-11-22T11:30:56;14.57;;;6.65;;
76320;SDS011;65132;52.088;5.402;2023-11-22T11:33:35;14.60;;;6.43;;
76320;SDS011;65132;52.088;5.402;2023-11-22T11:36:27;13.35;;;5.93;;
76320;SDS011;65132;52.088;5.402;2023-11-22T11:38:57;15.23;;;7.32;;
76320;SDS011;65132;52.088;5.402;2023-11-22T11:41:34;15.48;;;6.75;;
76320;SDS011;65132;52.088;5.402;2023-11-22T11:44:01;15.57;;;6.63;;
76320;SDS011;65132;52.088;5.402;2023-11-22T11:46:32;13.90;;;6.43;;
76320;SDS011;65132;52.088;5.402;2023-11-22T11:49:00;13.98;;;7.22;;
76320;SDS011;65132;52.088;5.402;2023-11-22T11:51:27;14.18;;;6.97;;
76320;SDS011;65132;52.088;5.402;2023-11-22T11:53:54;16.23;;;6.20;;
76320;SDS011;65132;52.088;5.402;2023-11-22T11:56:25;13.20;;;5.65;;
76320;SDS011;65132;52.088;5.402;2023-11-22T12:01:22;10.73;;;5.35;;
76320;SDS011;65132;52.088;5.402;2023-11-22T12:03:51;11.80;;;4.65;;
76320;SDS011;65132;52.088;5.402;2023-11-22T12:06:19;14.77;;;6.22;;
76320;SDS011;65132;52.088;5.402;2023-11-22T12:08:47;9.70;;;4.95;;
76320;SDS011;65132;52.088;5.402;2023-11-22T12:11:14;13.98;;;6.50;;
76320;SDS011;65132;52.088;5.402;2023-11-22T12:13:41;13.15;;;6.38;;
76320;SDS011;65132;52.088;5.402;2023-11-22T12:16:07;11.57;;;5.43;;
76320;SDS011;65132;52.088;5.402;2023-11-22T12:18:41;11.63;;;4.57;;
76320;SDS011;65132;52.088;5.402;2023-11-22T12:21:08;13.60;;;5.70;;
76320;SDS011;65132;52.088;5.402;2023-11-22T12:23:35;13.57;;;6.82;;
76320;SDS011;65132;52.088;5.402;2023-11-22T12:26:09;13.50;;;6.60;;
76320;SDS011;65132;52.088;5.402;2023-11-22T12:28:41;13.95;;;6.47;;
76320;SDS011;65132;52.088;5.402;2023-11-22T12:31:26;16.08;;;6.65;;
76320;SDS011;65132;52.088;5.402;2023-11-22T12:33:53;17.38;;;7.07;;
76320;SDS011;65132;52.088;5.402;2023-11-22T12:36:19;14.15;;;7.07;;
76320;SDS011;65132;52.088;5.402;2023-11-22T12:38:49;16.30;;;7.72;;
76320;SDS011;65132;52.088;5.402;2023-11-22T12:41:23;17.15;;;8.45;;
76320;SDS011;65132;52.088;5.402;2023-11-22T12:44:01;17.02;;;7.75;;
76320;SDS011;65132;52.088;5.402;2023-11-22T12:46:44;19.33;;;8.85;;
76320;SDS011;65132;52.088;5.402;2023-11-22T12:49:22;18.80;;;7.88;;
76320;SDS011;65132;52.088;5.402;2023-11-22T12:51:53;18.30;;;7.72;;
76320;SDS011;65132;52.088;5.402;2023-11-22T12:54:24;18.65;;;7.03;;
76320;SDS011;65132;52.088;5.402;2023-11-22T12:56:50;19.48;;;8.20;;
76320;SDS011;65132;52.088;5.402;2023-11-22T12:59:17;18.45;;;8.15;;
76320;SDS011;65132;52.088;5.402;2023-11-22T13:01:47;19.75;;;8.35;;
76320;SDS011;65132;52.088;5.402;2023-11-22T13:04:13;20.13;;;7.50;;
76320;SDS011;65132;52.088;5.402;2023-11-22T13:06:40;20.33;;;8.02;;
76320;SDS011;65132;52.088;5.402;2023-11-22T13:09:08;18.48;;;8.55;;
76320;SDS011;65132;52.088;5.402;2023-11-22T13:11:38;15.23;;;6.32;;
76320;SDS011;65132;52.088;5.402;2023-11-22T13:14:09;14.25;;;5.28;;
76320;SDS011;65132;52.088;5.402;2023-11-22T13:16:36;18.95;;;8.25;;
76320;SDS011;65132;52.088;5.402;2023-11-22T13:19:04;15.43;;;7.07;;
76320;SDS011;65132;52.088;5.402;2023-11-22T13:21:33;18.42;;;7.63;;
76320;SDS011;65132;52.088;5.402;2023-11-22T13:24:00;16.30;;;7.25;;
76320;SDS011;65132;52.088;5.402;2023-11-22T13:26:26;17.98;;;7.47;;
76320;SDS011;65132;52.088;5.402;2023-11-22T13:28:53;18.83;;;8.00;;
76320;SDS011;65132;52.088;5.402;2023-11-22T13:31:19;12.23;;;5.30;;
76320;SDS011;65132;52.088;5.402;2023-11-22T13:33:46;15.98;;;6.75;;
76320;SDS011;65132;52.088;5.402;2023-11-22T13:36:13;17.83;;;8.57;;
76320;SDS011;65132;52.088;5.402;2023-11-22T13:38:43;12.95;;;5.78;;
76320;SDS011;65132;52.088;5.402;2023-11-22T13:41:12;21.55;;;8.15;;
76320;SDS011;65132;52.088;5.402;2023-11-22T13:43:39;19.73;;;8.68;;
76320;SDS011;65132;52.088;5.402;2023-11-22T13:46:07;19.63;;;8.60;;
76320;SDS011;65132;52.088;5.402;2023-11-22T13:48:34;20.15;;;9.38;;
76320;SDS011;65132;52.088;5.402;2023-11-22T13:51:01;14.18;;;5.95;;
76320;SDS011;65132;52.088;5.402;2023-11-22T13:53:29;19.42;;;7.85;;
76320;SDS011;65132;52.088;5.402;2023-11-22T13:55:55;16.55;;;7.63;;
76320;SDS011;65132;52.088;5.402;2023-11-22T14:00:52;16.25;;;7.72;;
76320;SDS011;65132;52.088;5.402;2023-11-22T14:03:19;20.23;;;8.13;;
76320;SDS011;65132;52.088;5.402;2023-11-22T14:05:47;24.92;;;9.82;;
76320;SDS011;65132;52.088;5.402;2023-11-22T14:08:14;24.77;;;9.80;;
76320;SDS011;65132;52.088;5.402;2023-11-22T14:10:45;22.67;;;10.02;;
76320;SDS011;65132;52.088;5.402;2023-11-22T14:13:21;19.02;;;7.40;;
76320;SDS011;65132;52.088;5.402;2023-11-22T14:15:50;22.20;;;9.00;;
76320;SDS011;65132;52.088;5.402;2023-11-22T14:18:19;15.45;;;7.13;;
76320;SDS011;65132;52.088;5.402;2023-11-22T14:20:47;23.45;;;9.80;;
76320;SDS011;65132;52.088;5.402;2023-11-22T14:23:13;21.42;;;10.93;;
76320;SDS011;65132;52.088;5.402;2023-11-22T14:25:40;24.35;;;10.15;;
76320;SDS011;65132;52.088;5.402;2023-11-22T14:28:07;25.65;;;9.55;;
76320;SDS011;65132;52.088;5.402;2023-11-22T14:30:39;29.33;;;11.63;;
76320;SDS011;65132;52.088;5.402;2023-11-22T14:33:09;25.50;;;10.43;;
76320;SDS011;65132;52.088;5.402;2023-11-22T14:35:36;26.27;;;12.10;;
76320;SDS011;65132;52.088;5.402;2023-11-22T14:38:05;25.23;;;10.90;;
76320;SDS011;65132;52.088;5.402;2023-11-22T14:40:36;25.42;;;10.75;;
76320;SDS011;65132;52.088;5.402;2023-11-22T14:43:02;23.45;;;9.73;;
76320;SDS011;65132;52.088;5.402;2023-11-22T14:45:29;27.63;;;11.55;;
76320;SDS011;65132;52.088;5.402;2023-11-22T14:47:56;24.02;;;10.48;;
76320;SDS011;65132;52.088;5.402;2023-11-22T14:50:23;21.80;;;9.65;;
76320;SDS011;65132;52.088;5.402;2023-11-22T14:52:50;23.75;;;10.32;;
76320;SDS011;65132;52.088;5.402;2023-11-22T14:55:18;24.75;;;9.85;;
76320;SDS011;65132;52.088;5.402;2023-11-22T14:57:47;20.55;;;9.25;;
76320;SDS011;65132;52.088;5.402;2023-11-22T15:00:13;21.60;;;8.50;;